createdAt,value
2022-12-22T00:02:36.491Z,95639.72
2022-12-22T00:05:31.392Z,95610.03
2022-12-22T00:08:16.761Z,95629.75
2022-12-22T00:11:02.093Z,95629.75
2022-12-22T00:13:48.935Z,95576.25
2022-12-22T00:16:34.128Z,95595.72
2022-12-22T00:19:19.229Z,95620.91
2022-12-22T00:22:04.330Z,95615.13
2022-12-22T00:24:49.527Z,95613.66
2022-12-22T00:27:41.208Z,95619.13
2022-12-22T00:30:33.112Z,95613.56
2022-12-22T00:33:19.154Z,95621.72
2022-12-22T00:36:04.317Z,95616.78
2022-12-22T00:38:49.403Z,95617.84
2022-12-22T00:41:34.518Z,95584.19
2022-12-22T00:44:19.651Z,95605.19
2022-12-22T00:47:06.576Z,95607.28
2022-12-22T00:49:54.266Z,95607.00
2022-12-22T00:52:42.463Z,95594.16
2022-12-22T00:55:32.708Z,95598.84
2022-12-22T00:58:18.264Z,95594.66
2022-12-22T01:01:03.573Z,95592.81
2022-12-22T01:03:50.030Z,95593.59
2022-12-22T01:06:35.996Z,95588.00
2022-12-22T01:09:22.948Z,95594.53
2022-12-22T01:12:08.244Z,95530.94
2022-12-22T01:14:53.503Z,95578.78
2022-12-22T01:17:38.493Z,95558.44
2022-12-22T01:20:26.591Z,95586.84
2022-12-22T01:23:12.090Z,95448.47
2022-12-22T01:25:57.243Z,95591.44
2022-12-22T01:28:42.484Z,95590.34
2022-12-22T01:31:36.823Z,95552.50
2022-12-22T01:34:22.175Z,95590.91
2022-12-22T01:37:08.590Z,95585.69
2022-12-22T01:39:53.791Z,95584.91
2022-12-22T01:42:38.950Z,95574.69
2022-12-22T01:45:38.798Z,95588.91
2022-12-22T01:48:27.583Z,95587.38
2022-12-22T01:51:12.693Z,95582.41
2022-12-22T01:53:59.560Z,95582.34
2022-12-22T01:56:45.372Z,95561.84
2022-12-22T01:59:30.600Z,95566.97
2022-12-22T02:02:17.829Z,95572.59
2022-12-22T02:05:06.659Z,95548.97
2022-12-22T02:08:08.419Z,95567.66
2022-12-22T02:11:11.514Z,95566.16
2022-12-22T02:14:04.254Z,95563.63
2022-12-22T02:16:53.923Z,95560.28
2022-12-22T02:20:03.809Z,95561.06
2022-12-22T02:22:58.519Z,95532.94
2022-12-22T02:25:50.197Z,95551.38
2022-12-22T02:28:36.585Z,95556.59
2022-12-22T02:31:21.698Z,95545.09
2022-12-22T02:34:06.940Z,95550.56
2022-12-22T02:37:09.740Z,95525.66
2022-12-22T02:40:07.096Z,95539.88
2022-12-22T02:42:54.917Z,95540.91
2022-12-22T02:45:49.338Z,95557.44
2022-12-22T02:48:40.135Z,95552.50
2022-12-22T02:51:30.265Z,95548.59
2022-12-22T02:54:16.328Z,95526.34
2022-12-22T02:57:02.374Z,95552.06
2022-12-22T02:59:47.545Z,95539.78
2022-12-22T03:02:34.092Z,95552.06
2022-12-22T03:05:19.333Z,95524.28
2022-12-22T03:08:08.244Z,95539.22
2022-12-22T03:10:54.204Z,95532.50
2022-12-22T03:13:39.311Z,95504.69
2022-12-22T03:16:24.401Z,95549.06
2022-12-22T03:19:10.947Z,95544.09
2022-12-22T03:21:56.071Z,95381.25
2022-12-22T03:24:41.186Z,95539.06
2022-12-22T03:27:08.799Z,95528.06
2022-12-22T03:29:36.489Z,95533.53
2022-12-22T03:32:04.400Z,95533.75
2022-12-22T03:34:33.444Z,95502.28
2022-12-22T03:37:24.047Z,95528.56
2022-12-22T03:39:51.662Z,95477.44
2022-12-22T03:42:36.758Z,95442.56
2022-12-22T03:45:18.822Z,95504.19
2022-12-22T03:47:46.507Z,95480.59
2022-12-22T03:50:15.641Z,95430.00
2022-12-22T03:52:43.229Z,95520.81
2022-12-22T03:55:11.007Z,95467.28
2022-12-22T03:57:38.649Z,95437.91
2022-12-22T04:00:07.834Z,95477.75
2022-12-22T04:02:39.994Z,95462.53
2022-12-22T04:05:08.469Z,95514.00
2022-12-22T04:07:37.539Z,95506.44
2022-12-22T04:10:23.827Z,95502.28
2022-12-22T04:12:55.737Z,95488.44
2022-12-22T04:15:24.218Z,95497.88
2022-12-22T04:17:51.899Z,95459.06
2022-12-22T04:20:20.597Z,95481.91
2022-12-22T04:22:49.814Z,95399.63
2022-12-22T04:25:17.649Z,95516.75
2022-12-22T04:27:45.540Z,95483.22
2022-12-22T04:30:14.146Z,95494.03
2022-12-22T04:32:41.833Z,95459.69
2022-12-22T04:35:11.071Z,95492.19
2022-12-22T04:37:38.801Z,95356.72
2022-12-22T04:40:09.236Z,95497.69
2022-12-22T04:42:36.923Z,95462.31
2022-12-22T04:45:05.143Z,95437.41
2022-12-22T04:47:32.863Z,95410.47
2022-12-22T04:50:00.560Z,95323.06
2022-12-22T04:52:28.252Z,95380.59
2022-12-22T04:54:55.931Z,95409.38
2022-12-22T04:57:24.954Z,95432.47
2022-12-22T04:59:52.647Z,95382.72
2022-12-22T05:02:20.340Z,95472.84
2022-12-22T05:04:48.172Z,95350.53
2022-12-22T05:07:16.011Z,95336.69
2022-12-22T05:09:43.770Z,95460.25
2022-12-22T05:12:25.388Z,95461.56
2022-12-22T05:14:54.557Z,95343.22
2022-12-22T05:17:22.288Z,95422.81
2022-12-22T05:19:50.026Z,95396.63
2022-12-22T05:22:17.910Z,95296.41
2022-12-22T05:24:45.583Z,95342.44
2022-12-22T05:27:13.780Z,95436.66
2022-12-22T05:29:41.464Z,95340.88
2022-12-22T05:32:10.501Z,95372.28
2022-12-22T05:34:38.204Z,95329.09
2022-12-22T05:37:05.903Z,95471.25
2022-12-22T05:39:33.641Z,95336.38
2022-12-22T05:42:01.310Z,95393.72
2022-12-22T05:44:29.002Z,95428.81
2022-12-22T05:46:56.789Z,95440.31
2022-12-22T05:49:25.962Z,95415.75
2022-12-22T05:51:55.820Z,95376.19
2022-12-22T05:54:23.449Z,95439.06
2022-12-22T05:56:51.123Z,95328.03
2022-12-22T05:59:19.101Z,95371.22
2022-12-22T06:01:46.861Z,95303.19
2022-12-22T06:04:14.702Z,95412.34
2022-12-22T06:07:10.336Z,95446.09
2022-12-22T06:09:37.972Z,95405.28
2022-12-22T06:12:06.717Z,95448.19
2022-12-22T06:14:34.747Z,95447.19
2022-12-22T06:17:02.511Z,95413.13
2022-12-22T06:19:30.163Z,95326.22
2022-12-22T06:21:58.084Z,95287.50
2022-12-22T06:24:27.231Z,95346.13
2022-12-22T06:26:54.948Z,95276.25
2022-12-22T06:29:22.799Z,95359.16
2022-12-22T06:31:50.505Z,95427.09
2022-12-22T06:34:18.311Z,95430.75
2022-12-22T06:36:46.988Z,95455.41
2022-12-22T06:39:16.065Z,95438.06
2022-12-22T06:42:02.485Z,95447.97
2022-12-22T06:44:30.143Z,95450.41
2022-12-22T06:51:22.969Z,95461.16
2022-12-22T06:53:50.831Z,95462.75
2022-12-22T06:56:18.480Z,95469.81
2022-12-22T06:58:47.526Z,95452.94
2022-12-22T07:01:15.342Z,95471.84
2022-12-22T07:03:43.121Z,95342.63
2022-12-22T07:06:11.665Z,95433.25
2022-12-22T07:08:39.334Z,95356.97
2022-12-22T07:11:07.021Z,95452.41
2022-12-22T07:13:36.390Z,95391.22
2022-12-22T07:16:08.159Z,95457.91
2022-12-22T07:18:38.151Z,95465.00
2022-12-22T07:21:07.801Z,95326.13
2022-12-22T07:23:36.099Z,95464.22
2022-12-22T07:26:04.566Z,95447.53
2022-12-22T07:28:34.536Z,95443.53
2022-12-22T07:31:02.706Z,95363.81
2022-12-22T07:33:32.011Z,95471.38
2022-12-22T07:36:04.938Z,95429.25
2022-12-22T07:38:34.637Z,95448.59
2022-12-22T07:41:48.868Z,95457.00
2022-12-22T07:44:17.542Z,95429.22
2022-12-22T07:46:45.395Z,95451.75
2022-12-22T07:49:31.811Z,95315.97
2022-12-22T07:52:00.385Z,95456.69
2022-12-22T07:54:29.436Z,95457.00
2022-12-22T07:57:02.348Z,95382.97
2022-12-22T07:59:30.055Z,95438.66
2022-12-22T08:01:57.825Z,95462.78
2022-12-22T08:04:27.274Z,95452.34
2022-12-22T08:06:55.994Z,95305.28
2022-12-22T08:10:13.715Z,95467.81
2022-12-22T08:12:43.031Z,95473.28
2022-12-22T08:15:12.432Z,95449.66
2022-12-22T08:17:40.802Z,95474.47
2022-12-22T08:20:10.943Z,95459.19
2022-12-22T08:22:44.313Z,95454.91
2022-12-22T08:25:12.016Z,95381.84
2022-12-22T08:27:45.244Z,95450.00
2022-12-22T08:30:13.877Z,95408.34
2022-12-22T08:32:42.622Z,95453.63
2022-12-22T08:35:11.819Z,95375.09
2022-12-22T08:37:44.151Z,95382.78
2022-12-22T08:40:15.530Z,95455.94
2022-12-22T08:42:43.810Z,95321.63
2022-12-22T08:45:12.474Z,95459.91
2022-12-22T08:47:42.154Z,95468.56
2022-12-22T08:50:12.098Z,95460.84
2022-12-22T08:52:39.783Z,95443.50
2022-12-22T08:55:08.916Z,95366.66
2022-12-22T08:57:40.990Z,95467.75
2022-12-22T09:00:13.036Z,95463.31
2022-12-22T09:02:40.999Z,95456.69
2022-12-22T09:05:09.719Z,95397.34
2022-12-22T09:07:38.973Z,95448.72
2022-12-22T09:10:08.395Z,95357.56
2022-12-22T09:12:36.465Z,95404.31
2022-12-22T09:15:09.750Z,95386.69
2022-12-22T09:17:37.836Z,95436.53
2022-12-22T09:20:06.796Z,95325.59
2022-12-22T09:22:34.562Z,95470.75
2022-12-22T09:25:03.602Z,95373.72
2022-12-22T09:27:31.754Z,95454.09
2022-12-22T09:29:59.488Z,95457.06
2022-12-22T09:32:30.306Z,95318.66
2022-12-22T09:34:58.009Z,95409.03
2022-12-22T09:37:25.794Z,95398.09
2022-12-22T09:39:53.474Z,95484.19
2022-12-22T09:42:23.982Z,95412.66
2022-12-22T09:44:54.488Z,95317.41
2022-12-22T09:47:27.499Z,95444.75
2022-12-22T09:49:58.239Z,95344.47
2022-12-22T09:52:39.219Z,95369.25
2022-12-22T09:55:16.472Z,95446.16
2022-12-22T09:57:49.161Z,95429.19
2022-12-22T10:00:31.860Z,95407.19
2022-12-22T10:03:15.119Z,95417.22
2022-12-22T10:05:48.079Z,95418.44
2022-12-22T10:08:20.747Z,95415.91
2022-12-22T10:10:54.758Z,95394.50
2022-12-22T10:13:27.161Z,95430.41
2022-12-22T10:15:55.798Z,95439.28
2022-12-22T10:18:26.422Z,95424.19
2022-12-22T10:21:10.772Z,95401.69
2022-12-22T10:23:41.116Z,95426.34
2022-12-22T10:26:30.897Z,95420.06
2022-12-22T10:29:06.498Z,95393.03
2022-12-22T10:31:35.484Z,95410.97
2022-12-22T10:34:13.721Z,95342.38
2022-12-22T10:36:47.300Z,95407.13
2022-12-22T10:39:22.122Z,95400.00
2022-12-22T10:41:51.784Z,95246.53
2022-12-22T10:44:24.237Z,95357.75
2022-12-22T10:46:54.124Z,95352.47
2022-12-22T10:49:25.005Z,95346.50
2022-12-22T10:51:55.683Z,95384.13
2022-12-22T10:54:29.582Z,95380.41
2022-12-22T10:57:02.932Z,95398.63
2022-12-22T10:59:32.969Z,95331.09
2022-12-22T11:02:25.305Z,95432.63
2022-12-22T11:04:54.389Z,95400.00
2022-12-22T11:07:22.745Z,95236.66
2022-12-22T11:09:50.778Z,95420.69
2022-12-22T11:12:28.653Z,95345.41
2022-12-22T11:15:05.577Z,95433.84
2022-12-22T11:17:42.201Z,95287.09
2022-12-22T11:20:36.493Z,95432.38
2022-12-22T11:23:10.667Z,95345.22
2022-12-22T11:25:46.610Z,95419.22
2022-12-22T11:28:38.541Z,95409.88
2022-12-22T11:31:24.195Z,95415.56
2022-12-22T11:34:03.123Z,95353.72
2022-12-22T11:36:46.355Z,95379.31
2022-12-22T11:39:16.578Z,95362.00
2022-12-22T11:41:58.360Z,95356.09
2022-12-22T11:44:40.991Z,95327.78
2022-12-22T11:47:21.106Z,95283.94
2022-12-22T11:50:57.637Z,95351.16
2022-12-22T11:53:09.017Z,95361.06
2022-12-22T11:55:41.648Z,95219.19
2022-12-22T11:58:25.226Z,95254.22
2022-12-22T12:01:25.753Z,95360.63
2022-12-22T12:04:11.612Z,95342.34
2022-12-22T12:06:56.724Z,95281.75
2022-12-22T12:09:39.682Z,95242.56
2022-12-22T12:12:15.719Z,95314.06
2022-12-22T12:14:54.674Z,95253.75
2022-12-22T12:17:36.110Z,95368.78
2022-12-22T12:20:33.094Z,95371.47
2022-12-22T12:23:16.569Z,95239.25
2022-12-22T12:25:50.071Z,95309.31
2022-12-22T12:28:25.188Z,95348.41
2022-12-22T12:30:56.844Z,95334.41
2022-12-22T12:33:35.417Z,95326.09
2022-12-22T12:36:12.741Z,95229.53
2022-12-22T12:39:07.371Z,95343.06
2022-12-22T12:41:45.967Z,95339.84
2022-12-22T12:44:16.374Z,95346.22
2022-12-22T12:46:56.898Z,95312.25
2022-12-22T12:49:52.754Z,95339.81
2022-12-22T12:53:15.576Z,95352.84
2022-12-22T12:56:08.217Z,95351.78
2022-12-22T12:58:51.820Z,95331.53
2022-12-22T13:01:56.934Z,95355.38
2022-12-22T13:05:11.949Z,95351.84
2022-12-22T13:08:16.691Z,95352.94
2022-12-22T13:11:10.422Z,95345.66
2022-12-22T13:13:50.405Z,95311.66
2022-12-22T13:16:30.717Z,95364.81
2022-12-22T13:19:00.078Z,95362.03
2022-12-22T13:21:52.725Z,95368.88
2022-12-22T13:24:29.091Z,95358.22
2022-12-22T13:27:03.060Z,95269.13
2022-12-22T13:29:41.560Z,95281.78
2022-12-22T13:32:22.770Z,95355.63
2022-12-22T13:35:29.675Z,95367.25
2022-12-22T13:37:49.211Z,95364.34
2022-12-22T13:40:20.159Z,95369.63
2022-12-22T13:42:50.803Z,95296.13
2022-12-22T13:45:30.666Z,95285.59
2022-12-22T13:48:01.593Z,95204.38
2022-12-22T13:50:34.891Z,95286.00
2022-12-22T13:53:04.905Z,95389.25
2022-12-22T13:55:34.130Z,95326.00
2022-12-22T13:58:07.399Z,95378.81
2022-12-22T14:00:37.002Z,95318.66
2022-12-22T14:03:09.191Z,95385.66
2022-12-22T14:05:37.150Z,95396.88
2022-12-22T14:08:06.684Z,95268.50
2022-12-22T14:10:38.388Z,95392.63
2022-12-22T14:13:09.008Z,95371.63
2022-12-22T14:15:38.088Z,95389.50
2022-12-22T14:18:06.216Z,95364.22
2022-12-22T14:20:37.211Z,95324.34
2022-12-22T14:23:09.037Z,95378.16
2022-12-22T14:25:39.581Z,95396.94
2022-12-22T14:28:12.511Z,95417.00
2022-12-22T14:30:45.899Z,95397.53
2022-12-22T14:33:29.976Z,95419.75
2022-12-22T14:36:24.575Z,95414.88
2022-12-22T14:38:54.082Z,95409.03
2022-12-22T14:41:46.115Z,95427.06
2022-12-22T14:44:21.660Z,95390.53
2022-12-22T14:47:09.131Z,95371.75
2022-12-22T14:49:45.671Z,95317.72
2022-12-22T14:52:21.116Z,95341.38
2022-12-22T14:54:50.715Z,95426.50
2022-12-22T14:57:24.463Z,95435.06
2022-12-22T15:00:00.269Z,95433.50
2022-12-22T15:02:38.352Z,95436.78
2022-12-22T15:05:15.032Z,95441.94
2022-12-22T15:08:07.300Z,95447.97
2022-12-22T15:10:40.674Z,95456.22
2022-12-22T15:13:17.194Z,95462.72
2022-12-22T15:15:44.925Z,95477.63
2022-12-22T15:18:16.260Z,95467.34
2022-12-22T15:20:43.969Z,95463.38
2022-12-22T15:23:17.137Z,95465.41
2022-12-22T15:25:45.566Z,95466.38
2022-12-22T15:28:13.302Z,95462.66
2022-12-22T15:30:41.837Z,95470.59
2022-12-22T15:33:15.199Z,95474.28
2022-12-22T15:35:43.977Z,95475.69
2022-12-22T15:38:13.893Z,95465.94
2022-12-22T15:40:42.334Z,95472.34
2022-12-22T15:43:28.722Z,95471.63
2022-12-22T15:45:58.086Z,95407.97
2022-12-22T15:48:31.755Z,95476.53
2022-12-22T15:51:00.170Z,95448.53
2022-12-22T15:53:28.934Z,95477.13
2022-12-22T15:55:58.701Z,95481.75
2022-12-22T15:58:32.055Z,95464.00
2022-12-22T16:00:59.844Z,95462.81
2022-12-22T16:03:29.076Z,95473.34
2022-12-22T16:05:57.956Z,95473.47
2022-12-22T16:08:32.364Z,95484.00
2022-12-22T16:11:00.616Z,95484.38
2022-12-22T16:13:29.447Z,95486.38
2022-12-22T16:15:57.848Z,95469.22
2022-12-22T16:18:27.481Z,95483.97
2022-12-22T16:20:58.828Z,95485.94
2022-12-22T16:23:27.732Z,95494.28
2022-12-22T16:26:01.707Z,95482.31
2022-12-22T16:28:30.676Z,95412.59
2022-12-22T16:30:58.626Z,95413.09
2022-12-22T16:33:26.325Z,95482.09
2022-12-22T16:35:54.168Z,95484.75
2022-12-22T16:38:23.278Z,95493.84
2022-12-22T16:40:54.329Z,95468.06
2022-12-22T16:46:15.292Z,95503.63
2022-12-22T16:48:46.070Z,95500.38
2022-12-22T16:51:18.454Z,95482.22
2022-12-22T16:53:47.781Z,95515.84
2022-12-22T16:56:18.917Z,95502.06
2022-12-22T16:58:47.248Z,95505.88
2022-12-22T17:01:29.272Z,95508.06
2022-12-22T17:03:59.052Z,95497.81
2022-12-22T17:06:26.883Z,95510.13
2022-12-22T17:08:55.998Z,95510.63
2022-12-22T17:11:29.219Z,95520.09
2022-12-22T17:14:07.068Z,95513.72
2022-12-22T17:16:34.983Z,95516.53
2022-12-22T17:19:02.663Z,95511.97
2022-12-22T17:21:30.733Z,95506.13
2022-12-22T17:24:03.922Z,95501.63
2022-12-22T17:26:34.005Z,95516.69
2022-12-22T17:29:01.940Z,95506.88
2022-12-22T17:31:30.076Z,95505.88
2022-12-22T17:33:58.857Z,95489.75
2022-12-22T17:36:39.759Z,95498.94
2022-12-22T17:39:13.163Z,95495.72
2022-12-22T17:41:41.331Z,95491.47
2022-12-22T17:44:14.747Z,95475.91
2022-12-22T17:46:42.763Z,95519.59
2022-12-22T17:49:12.041Z,95516.25
2022-12-22T17:51:40.960Z,95515.59
2022-12-22T17:54:21.380Z,95511.69
2022-12-22T17:56:49.207Z,95515.94
2022-12-22T17:59:16.919Z,95515.94
2022-12-22T18:01:44.734Z,95523.84
2022-12-22T18:04:12.635Z,95507.16
2022-12-22T18:06:42.224Z,95489.22
2022-12-22T18:09:19.572Z,95529.09
2022-12-22T18:11:47.580Z,95452.31
2022-12-22T18:14:15.857Z,95496.66
2022-12-22T18:16:43.977Z,95462.47
2022-12-22T18:19:11.690Z,95506.00
2022-12-22T18:21:39.643Z,95506.09
2022-12-22T18:24:15.772Z,95498.97
2022-12-22T18:26:43.532Z,95496.44
2022-12-22T18:29:14.860Z,95476.38
2022-12-22T18:31:43.981Z,95487.03
2022-12-22T18:34:11.925Z,95469.91
2022-12-22T18:36:42.215Z,95485.81
2022-12-22T18:39:17.774Z,95488.66
2022-12-22T18:41:46.031Z,95478.97
2022-12-22T18:44:16.865Z,95475.81
2022-12-22T18:46:44.971Z,95438.84
2022-12-22T18:49:13.060Z,95465.75
2022-12-22T18:51:41.360Z,95469.22
2022-12-22T18:54:25.542Z,95465.31
2022-12-22T18:56:53.605Z,95472.69
2022-12-22T18:59:25.189Z,95458.66
2022-12-22T19:01:53.236Z,95467.91
2022-12-22T19:04:21.005Z,95454.88
2022-12-22T19:06:48.624Z,95445.63
2022-12-22T19:09:17.583Z,95458.22
2022-12-22T19:11:45.780Z,95461.50
2022-12-22T19:14:18.998Z,95451.63
2022-12-22T19:16:47.723Z,95453.19
2022-12-22T19:19:18.990Z,95455.81
2022-12-22T19:21:46.826Z,95447.50
2022-12-22T19:24:14.574Z,95459.84
2022-12-22T19:26:43.581Z,95443.88
2022-12-22T19:29:14.889Z,95453.31
2022-12-22T19:31:44.547Z,95446.06
2022-12-22T19:34:17.395Z,95441.94
2022-12-22T19:36:45.043Z,95438.28
2022-12-22T19:39:12.707Z,95443.28
2022-12-22T19:41:45.912Z,95439.13
2022-12-22T19:44:19.095Z,95432.63
2022-12-22T19:46:46.898Z,95437.63
2022-12-22T19:49:17.033Z,95436.84
2022-12-22T19:51:44.681Z,95397.66
2022-12-22T19:54:12.310Z,95429.03
2022-12-22T19:56:41.918Z,95379.81
2022-12-22T19:59:28.157Z,95417.91
2022-12-22T20:01:57.773Z,95419.34
2022-12-22T20:04:25.657Z,95430.81
2022-12-22T20:06:53.353Z,95426.91
2022-12-22T20:09:21.295Z,95417.03
2022-12-22T20:11:49.217Z,95421.59
2022-12-22T20:14:19.783Z,95411.88
2022-12-22T20:16:47.531Z,95381.91
2022-12-22T20:19:16.164Z,95415.00
2022-12-22T20:21:44.470Z,95414.03
2022-12-22T20:24:26.409Z,95405.84
2022-12-22T20:26:58.181Z,95404.75
2022-12-22T20:29:27.163Z,95405.28
2022-12-22T20:31:54.850Z,95404.84
2022-12-22T20:34:22.529Z,95392.94
2022-12-22T20:36:50.291Z,95402.16
2022-12-22T20:39:20.301Z,95391.38
2022-12-22T20:41:52.956Z,95391.16
2022-12-22T20:44:22.247Z,95391.25
2022-12-22T20:46:51.533Z,95391.97
2022-12-22T20:49:19.162Z,95381.13
2022-12-22T20:51:46.879Z,95370.81
2022-12-22T20:54:15.609Z,95380.50
2022-12-22T20:56:45.105Z,95382.84
2022-12-22T20:59:15.567Z,95344.13
2022-12-22T21:01:44.401Z,95367.59
2022-12-22T21:04:14.915Z,95341.75
2022-12-22T21:06:47.808Z,95370.66
2022-12-22T21:09:16.086Z,95289.19
2022-12-22T21:11:44.245Z,95371.16
2022-12-22T21:14:13.387Z,95370.13
2022-12-22T21:16:41.991Z,95313.75
2022-12-22T21:19:18.384Z,95371.19
2022-12-22T21:21:46.326Z,95378.66
2022-12-22T21:24:13.967Z,95368.13
2022-12-22T21:26:45.292Z,95348.97
2022-12-22T21:29:17.284Z,95319.16
2022-12-22T21:31:46.146Z,95350.63
2022-12-22T21:34:13.841Z,95357.53
2022-12-22T21:36:44.937Z,95351.56
2022-12-22T21:39:20.180Z,95357.59
2022-12-22T21:42:04.269Z,95351.59
2022-12-22T21:44:34.088Z,95356.75
2022-12-22T21:47:02.840Z,95356.47
2022-12-22T21:49:32.364Z,95352.69
2022-12-22T21:52:01.652Z,95343.09
2022-12-22T21:54:29.560Z,95316.19
2022-12-22T21:56:57.280Z,95344.50
2022-12-22T21:59:25.074Z,95224.47
2022-12-22T22:01:53.453Z,95241.88
2022-12-22T22:04:22.000Z,95340.53
2022-12-22T22:06:50.912Z,95337.06
2022-12-22T22:09:20.015Z,95329.88
2022-12-22T22:12:05.312Z,95324.03
2022-12-22T22:14:32.984Z,95306.91
2022-12-22T22:17:00.668Z,95301.91
2022-12-22T22:19:28.309Z,95305.66
2022-12-22T22:21:56.004Z,95246.28
2022-12-22T22:24:25.066Z,95179.66
2022-12-22T22:26:52.872Z,95287.31
2022-12-22T22:29:20.643Z,95247.22
2022-12-22T22:31:48.375Z,95226.59
2022-12-22T22:34:16.849Z,95275.38
2022-12-22T22:36:44.530Z,95265.50
2022-12-22T22:39:12.179Z,95269.81
2022-12-22T22:41:43.571Z,95233.91
2022-12-22T22:44:11.659Z,95210.78
2022-12-22T22:46:39.573Z,95257.28
2022-12-22T22:49:07.355Z,95158.66
2022-12-22T22:51:35.069Z,95226.63
2022-12-22T22:54:02.735Z,95245.69
2022-12-22T22:56:30.553Z,95244.06
2022-12-22T22:59:00.744Z,95211.94
2022-12-22T23:01:28.566Z,95202.00
2022-12-22T23:03:56.352Z,95203.84
2022-12-22T23:06:24.456Z,95117.53
2022-12-22T23:08:52.286Z,95195.19
2022-12-22T23:11:19.988Z,95203.16
2022-12-22T23:13:47.737Z,95187.69
2022-12-22T23:16:19.159Z,95207.19
2022-12-22T23:18:46.873Z,95113.50
2022-12-22T23:21:15.075Z,95198.88
2022-12-22T23:23:42.745Z,95193.56
2022-12-22T23:26:10.384Z,95187.81
2022-12-22T23:28:39.292Z,95145.25
2022-12-22T23:31:11.819Z,95194.25
2022-12-22T23:33:40.922Z,95115.53
2022-12-22T23:36:09.389Z,95150.16
2022-12-22T23:38:37.190Z,95016.91
2022-12-22T23:41:06.547Z,95193.72
2022-12-22T23:43:34.773Z,95179.00
2022-12-22T23:46:07.211Z,95093.44
2022-12-22T23:48:35.313Z,95156.69
2022-12-22T23:51:04.478Z,95169.47
2022-12-22T23:53:32.138Z,95197.59
2022-12-22T23:55:59.835Z,95189.91
2022-12-22T23:58:27.790Z,95134.03
